Time;durP1;ratioP1;P1;durP2;ratioP2;P2;SDS_P1;SDS_P2;PMS_P1;PMS_P2;Temp;Humidity;BMP_temperature;BMP_pressure;BME280_temperature;BME280_humidity;BME280_pressure;Samples;Min_cycle;Max_cycle;Signal;HPM_P1;HPM_P2
2022/03/01 00:01:42;;;;;;;17.60;16.80;;;;;;;-141.02;100.00;85249.97;5135939;27;20193;-68
2022/03/01 00:04:09;;;;;;;17.03;16.33;;;;;;;-141.02;100.00;85261.63;5135625;27;20231;-68
2022/03/01 00:06:36;;;;;;;16.30;15.70;;;;;;;-141.02;100.00;85261.63;5135927;27;20201;-68
2022/03/01 00:09:03;;;;;;;16.93;16.23;;;;;;;-141.02;100.00;85117.78;5135457;27;20245;-68
2022/03/01 00:11:32;;;;;;;17.40;16.70;;;;;;;-141.02;100.00;85288.84;5136306;27;20232;-68
2022/03/01 00:13:59;;;;;;;18.40;17.60;;;;;;;-141.02;100.00;85288.84;5135288;27;20230;-68
2022/03/01 00:16:26;;;;;;;17.47;16.77;;;;;;;-141.02;100.00;85308.28;5135718;27;20189;-68
2022/03/01 00:18:53;;;;;;;17.30;16.60;;;;;;;-141.02;100.00;85283.00;5135353;27;20228;-68
2022/03/01 00:21:21;;;;;;;18.07;17.37;;;;;;;-141.02;100.00;85292.72;5135301;27;20232;-69
2022/03/01 00:23:48;;;;;;;17.57;16.87;;;;;;;-141.02;100.00;85257.72;5135291;27;20232;-68
2022/03/01 00:26:15;;;;;;;17.67;16.97;;;;;;;-141.02;100.00;85273.28;5135492;27;20271;-68
2022/03/01 00:28:44;;;;;;;17.67;16.87;;;;;;;-141.02;100.00;85273.28;5135497;27;20192;-68
2022/03/01 00:31:11;;;;;;;17.47;16.67;;;;;;;-141.02;100.00;85214.97;5135116;27;20249;-68
2022/03/01 00:33:39;;;;;;;18.27;17.47;;;;;;;-141.02;100.00;85261.63;5135322;27;20254;-68
2022/03/01 00:36:06;;;;;;;16.47;15.87;;;;;;;-141.02;100.00;85249.97;5135061;27;20283;-68
2022/03/01 00:38:33;;;;;;;16.10;15.50;;;;;;;-141.02;100.00;85261.63;5135167;27;20268;-68
2022/03/01 00:41:00;;;;;;;18.77;17.63;;;;;;;-141.02;100.00;85207.19;5135279;27;20232;-68
2022/03/01 00:43:27;;;;;;;17.23;16.53;;;;;;;-141.02;100.00;85257.72;5134825;27;20287;-68
2022/03/01 00:45:56;;;;;;;17.27;16.57;;;;;;;-141.02;100.00;85203.31;5135124;27;20714;-68
2022/03/01 00:48:23;;;;;;;18.03;17.23;;;;;;;-141.02;100.00;85218.84;5135050;27;20314;-68
2022/03/01 00:50:51;;;;;;;16.97;16.13;;;;;;;-141.02;100.00;85249.97;5135040;27;20253;-69
2022/03/01 00:53:18;;;;;;;20.67;19.87;;;;;;;-141.02;100.00;85248.00;5134699;27;20263;-68
2022/03/01 00:55:45;;;;;;;17.30;16.60;;;;;;;-141.02;100.00;85213.03;5134596;27;20669;-68
2022/03/01 00:58:12;;;;;;;19.87;18.87;;;;;;;-141.02;100.00;85214.97;5134909;27;20227;-69
2022/03/01 01:00:39;;;;;;;17.17;16.47;;;;;;;-141.02;100.00;85183.88;5134539;27;20245;-68
2022/03/01 01:03:08;;;;;;;17.90;17.20;;;;;;;-141.02;100.00;85238.28;5134467;27;20239;-68
2022/03/01 01:05:35;;;;;;;22.10;20.63;;;;;;;-141.02;100.00;85238.28;5134434;27;20283;-68
2022/03/01 01:08:02;;;;;;;18.17;17.37;;;;;;;-141.02;100.00;85195.53;5134312;27;20672;-68
2022/03/01 01:10:29;;;;;;;20.67;19.67;;;;;;;-141.02;100.00;85224.69;5134682;27;20239;-68
2022/03/01 01:12:56;;;;;;;19.83;18.70;;;;;;;-141.02;100.00;85207.19;5134169;27;20679;-68
2022/03/01 01:15:23;;;;;;;18.53;17.73;;;;;;;-141.02;100.00;85183.88;5134224;27;20231;-69
2022/03/01 01:17:50;;;;;;;19.70;18.70;;;;;;;-141.02;100.00;85211.09;5135068;27;20192;-68
2022/03/01 01:20:19;;;;;;;18.10;17.30;;;;;;;-141.02;100.00;85211.09;5134144;27;20192;-68
2022/03/01 01:22:46;;;;;;;18.40;17.60;;;;;;;-141.02;100.00;85222.75;5134439;27;20189;-68
2022/03/01 01:25:16;;;;;;;18.90;18.00;;;;;;;-141.02;100.00;85187.75;5134023;27;20189;-70
2022/03/01 01:27:45;;;;;;;17.47;16.77;;;;;;;-141.02;100.00;85238.28;5134071;27;20199;-68
2022/03/01 01:30:14;;;;;;;18.67;17.87;;;;;;;-141.02;100.00;85207.19;5134232;27;20192;-69
2022/03/01 01:32:42;;;;;;;18.30;17.50;;;;;;;-141.02;100.00;85242.19;5133833;27;20684;-68
2022/03/01 01:35:12;;;;;;;18.70;17.80;;;;;;;-141.02;100.00;85228.56;5133824;27;20200;-68
2022/03/01 01:37:41;;;;;;;18.20;17.40;;;;;;;-141.02;100.00;85191.66;5134185;27;20660;-68
2022/03/01 01:40:12;;;;;;;18.10;17.30;;;;;;;-141.02;100.00;85242.19;5133705;27;20666;-68
2022/03/01 01:42:40;;;;;;;18.50;17.67;;;;;;;-141.02;100.00;85236.34;5133790;27;20315;-68
2022/03/01 01:45:08;;;;;;;18.93;18.13;;;;;;;-141.02;100.00;85220.81;5134001;27;20245;-68
2022/03/01 01:47:35;;;;;;;18.63;17.83;;;;;;;-141.02;100.00;85207.19;5133565;27;20188;-68
2022/03/01 01:50:03;;;;;;;18.13;17.33;;;;;;;-141.02;100.00;85197.47;5133908;27;20275;-69
2022/03/01 01:52:30;;;;;;;18.40;17.60;;;;;;;-141.02;100.00;85236.34;5133846;27;20241;-69
2022/03/01 01:54:59;;;;;;;19.00;18.20;;;;;;;-141.02;100.00;85213.03;5133523;27;20281;-68
2022/03/01 01:57:26;;;;;;;19.00;18.20;;;;;;;-141.02;100.00;85253.84;5133537;27;20188;-68
2022/03/01 01:59:55;;;;;;;18.83;17.93;;;;;;;-141.02;100.00;85164.44;5133039;27;20200;-69
2022/03/01 02:02:24;;;;;;;18.97;18.07;;;;;;;-141.02;100.00;85213.03;5133760;27;20200;-68
2022/03/01 02:04:51;;;;;;;18.37;17.57;;;;;;;-141.02;100.00;85205.25;5133297;27;20197;-69
2022/03/01 02:07:19;;;;;;;19.53;18.63;;;;;;;-141.02;100.00;85213.03;5133632;27;20231;-68
2022/03/01 02:09:46;;;;;;;19.40;18.50;;;;;;;-141.02;100.00;85228.56;5133263;27;20729;-68
2022/03/01 02:12:14;;;;;;;17.90;17.10;;;;;;;-141.02;100.00;85168.31;5133213;27;20193;-68
2022/03/01 02:14:42;;;;;;;18.13;17.33;;;;;;;-141.02;100.00;85145.00;5133454;27;20224;-68
2022/03/01 02:17:10;;;;;;;18.40;17.60;;;;;;;-141.02;100.00;85222.75;5133191;27;20197;-69
2022/03/01 02:19:38;;;;;;;18.80;17.93;;;;;;;-141.02;100.00;85172.22;5133141;27;20673;-68
2022/03/01 02:22:08;;;;;;;18.57;17.67;;;;;;;-141.02;100.00;85242.19;5133323;27;20241;-68
2022/03/01 02:24:35;;;;;;;19.33;18.53;;;;;;;-141.02;100.00;85214.97;5133446;27;20229;-68
2022/03/01 02:27:05;;;;;;;19.50;18.60;;;;;;;-141.02;100.00;85222.75;5133005;27;20197;-68
2022/03/01 02:29:33;;;;;;;19.17;18.37;;;;;;;-141.02;100.00;85176.09;5133312;27;20275;-69
2022/03/01 02:32:02;;;;;;;19.03;18.23;;;;;;;-141.02;100.00;85214.97;5133003;27;20279;-68
2022/03/01 02:34:29;;;;;;;17.30;16.60;;;;;;;-141.02;100.00;85211.09;5132886;27;20223;-68
2022/03/01 02:36:57;;;;;;;18.20;17.43;;;;;;;-141.02;100.00;84865.09;5133213;28;20241;-69
2022/03/01 02:39:25;;;;;;;18.63;17.80;;;;;;;-141.02;100.00;85199.41;5132932;27;20588;-68
2022/03/01 02:41:52;;;;;;;19.00;18.20;;;;;;;-141.02;100.00;85207.19;5132967;27;20193;-68
2022/03/01 02:44:19;;;;;;;18.60;17.70;;;;;;;-141.02;100.00;85148.88;5133215;27;20252;-69
2022/03/01 02:46:47;;;;;;;17.40;16.70;;;;;;;-141.02;100.00;85211.09;5132942;27;20227;-68
2022/03/01 02:49:14;;;;;;;17.67;16.97;;;;;;;-141.02;100.00;85218.84;5132809;28;20640;-69
2022/03/01 02:51:41;;;;;;;17.60;16.80;;;;;;;-141.02;100.00;85255.78;5132775;28;20670;-69
2022/03/01 02:54:09;;;;;;;17.30;16.60;;;;;;;-141.02;100.00;85230.53;5132759;27;20263;-68
2022/03/01 02:56:39;;;;;;;16.57;15.97;;;;;;;-141.02;100.00;85238.28;5132761;28;20229;-69
2022/03/01 02:59:06;;;;;;;17.43;16.73;;;;;;;-141.02;100.00;85073.06;5133135;27;20188;-68
2022/03/01 03:01:33;;;;;;;18.33;17.53;;;;;;;-141.02;100.00;85214.97;5133017;28;20196;-68
2022/03/01 03:04:01;;;;;;;18.43;17.67;;;;;;;-141.02;100.00;85249.97;5132984;28;20224;-68
2022/03/01 03:06:28;;;;;;;18.63;17.83;;;;;;;-141.02;100.00;85211.09;5133036;27;20281;-68
2022/03/01 03:08:56;;;;;;;18.30;17.50;;;;;;;-141.02;100.00;85284.94;5132908;28;20275;-68
2022/03/01 03:11:23;;;;;;;18.20;17.40;;;;;;;-141.02;100.00;85238.28;5133184;27;20196;-68
2022/03/01 03:13:51;;;;;;;17.77;17.07;;;;;;;-141.02;100.00;85195.53;5136497;27;20230;-68
2022/03/01 03:16:18;;;;;;;18.43;17.53;;;;;;;-141.02;100.00;85183.88;5136943;27;20224;-68
2022/03/01 03:18:46;;;;;;;17.57;16.87;;;;;;;-141.02;100.00;85179.97;5136878;27;20224;-69
2022/03/01 03:21:13;;;;;;;17.20;16.50;;;;;;;-141.02;100.00;85203.31;5136891;27;20189;-68
2022/03/01 03:23:40;;;;;;;18.10;17.33;;;;;;;-141.02;100.00;85214.97;5136743;27;20203;-69
2022/03/01 03:26:07;;;;;;;17.53;16.83;;;;;;;-141.02;100.00;85238.28;5136728;27;20224;-68
2022/03/01 03:28:34;;;;;;;17.10;16.40;;;;;;;-141.02;100.00;85203.31;5136658;27;20231;-68
2022/03/01 03:31:03;;;;;;;17.67;16.97;;;;;;;-141.02;100.00;85228.56;5136648;27;20235;-68
2022/03/01 03:33:30;;;;;;;16.70;16.00;;;;;;;-141.02;100.00;85205.25;5136177;27;20574;-69
2022/03/01 03:35:58;;;;;;;17.87;17.10;;;;;;;-141.02;100.00;85224.69;5136245;27;20636;-69
2022/03/01 03:38:25;;;;;;;16.20;15.60;;;;;;;-141.02;100.00;85211.09;5136120;27;20252;-70
2022/03/01 03:40:52;;;;;;;16.07;15.47;;;;;;;-141.02;100.00;85230.53;5136039;27;20225;-68
2022/03/01 03:43:19;;;;;;;16.80;16.10;;;;;;;-141.02;100.00;85131.38;5136035;27;20235;-68
2022/03/01 03:45:47;;;;;;;16.00;15.40;;;;;;;-141.02;100.00;85189.69;5136091;27;20654;-69
2022/03/01 03:48:16;;;;;;;16.63;15.93;;;;;;;-141.02;100.00;85191.66;5136008;27;20196;-69
2022/03/01 03:50:43;;;;;;;18.63;17.53;;;;;;;-141.02;100.00;85230.53;5135905;27;20196;-68
2022/03/01 03:53:10;;;;;;;16.57;15.97;;;;;;;-141.02;100.00;85179.97;5135900;27;20249;-69
2022/03/01 03:55:37;;;;;;;18.00;17.20;;;;;;;-141.02;100.00;85179.97;5136100;27;20639;-68
2022/03/01 03:58:04;;;;;;;17.43;16.73;;;;;;;-141.02;100.00;85170.25;5136172;27;20192;-68
2022/03/01 04:00:31;;;;;;;18.03;17.13;;;;;;;-141.02;100.00;85195.53;5135762;27;20616;-68
2022/03/01 04:02:59;;;;;;;16.90;16.20;;;;;;;-141.02;100.00;85226.63;5135994;27;20200;-69
2022/03/01 04:05:28;;;;;;;17.23;16.53;;;;;;;-141.02;100.00;85164.44;5135618;27;20203;-69
2022/03/01 04:07:55;;;;;;;17.00;16.30;;;;;;;-141.02;100.00;85370.47;5135832;27;20196;-68
2022/03/01 04:10:22;;;;;;;15.33;14.83;;;;;;;-141.02;100.00;85214.97;5135902;27;20254;-69
2022/03/01 04:12:49;;;;;;;15.00;14.43;;;;;;;-141.02;100.00;85230.53;5135460;27;20200;-69
2022/03/01 04:15:16;;;;;;;16.60;16.00;;;;;;;-141.02;100.00;85203.31;5135388;27;20689;-69
2022/03/01 04:17:43;;;;;;;16.77;16.17;;;;;;;-141.02;100.00;85226.63;5135706;27;20230;-73
2022/03/01 04:20:11;;;;;;;16.53;15.93;;;;;;;-141.02;100.00;85199.41;5135560;27;20256;-69
2022/03/01 04:22:40;;;;;;;16.70;16.00;;;;;;;-141.02;100.00;85203.31;5134982;27;20196;-69
2022/03/01 04:25:09;;;;;;;15.17;14.57;;;;;;;-141.02;100.00;85176.09;5135235;27;20200;-68
2022/03/01 04:27:36;;;;;;;20.53;19.50;;;;;;;-141.02;100.00;85224.69;5135539;27;20192;-69
2022/03/01 04:30:04;;;;;;;18.43;17.47;;;;;;;-141.02;100.00;85224.69;5135185;27;20283;-68
2022/03/01 04:32:31;;;;;;;14.97;14.37;;;;;;;-141.02;100.00;85242.19;5135435;27;20228;-69
2022/03/01 04:34:58;;;;;;;15.07;14.57;;;;;;;-141.02;100.00;85191.66;5135048;27;20224;-69
2022/03/01 04:37:25;;;;;;;15.53;14.90;;;;;;;-141.02;100.00;85234.41;5135338;27;20189;-69
2022/03/01 04:39:54;;;;;;;16.33;15.67;;;;;;;-141.02;100.00;55844.97;5134797;27;20709;-69
2022/03/01 04:42:21;;;;;;;16.97;16.27;;;;;;;-141.02;100.00;55844.97;5135764;27;20192;-71
2022/03/01 04:44:48;;;;;;;16.13;15.53;;;;;;;-141.02;100.00;55844.97;5135177;27;20192;-69
2022/03/01 04:47:15;;;;;;;16.63;16.00;;;;;;;-141.02;100.00;55844.97;5135156;27;20261;-70
2022/03/01 04:49:42;;;;;;;16.20;15.60;;;;;;;-141.02;100.00;55844.97;5134737;27;20194;-69
2022/03/01 04:52:09;;;;;;;16.13;15.53;;;;;;;-141.02;100.00;55844.97;5135061;27;20612;-69
2022/03/01 04:54:36;;;;;;;15.90;15.30;;;;;;;-141.02;100.00;55844.97;5134877;27;20220;-69
2022/03/01 04:57:05;;;;;;;15.60;15.00;;;;;;;-141.02;100.00;55844.97;5134660;27;20227;-69
2022/03/01 04:59:32;;;;;;;16.13;15.53;;;;;;;-141.02;100.00;55844.97;5134885;27;20192;-69
2022/03/01 05:01:59;;;;;;;17.93;17.23;;;;;;;-141.02;100.00;55844.97;5134558;27;20550;-72
2022/03/01 05:04:26;;;;;;;16.67;16.07;;;;;;;-141.02;100.00;55844.97;5134823;27;20239;-69
2022/03/01 05:06:53;;;;;;;18.73;17.87;;;;;;;-141.02;100.00;55844.97;5134782;27;20192;-69
2022/03/01 05:09:22;;;;;;;16.90;16.20;;;;;;;-141.02;100.00;55844.97;5134757;27;20304;-68
2022/03/01 05:11:50;;;;;;;17.70;16.93;;;;;;;-141.02;100.00;55844.97;5134352;27;20192;-69
2022/03/01 05:14:20;;;;;;;18.37;17.57;;;;;;;-141.02;100.00;55844.97;5134592;27;20260;-69
2022/03/01 05:16:47;;;;;;;18.47;17.67;;;;;;;-141.02;100.00;55844.97;5134240;27;20228;-69
2022/03/01 05:19:15;;;;;;;17.60;16.80;;;;;;;-141.02;100.00;55844.97;5134149;27;20243;-69
2022/03/01 05:21:42;;;;;;;17.60;16.90;;;;;;;-141.02;100.00;55844.97;5134140;27;20292;-69
2022/03/01 05:24:09;;;;;;;16.93;16.23;;;;;;;-141.02;100.00;55844.97;5134932;27;20224;-69
2022/03/01 05:26:36;;;;;;;18.37;17.57;;;;;;;-141.02;100.00;55844.97;5134062;27;20231;-69
2022/03/01 05:29:04;;;;;;;17.97;17.27;;;;;;;-141.02;100.00;55844.97;5133981;27;20666;-69
2022/03/01 05:31:32;;;;;;;17.70;17.00;;;;;;;-141.02;100.00;55844.97;5134023;27;20249;-69
2022/03/01 05:33:59;;;;;;;17.87;17.17;;;;;;;-141.02;100.00;55844.97;5133170;27;20284;-69
2022/03/01 05:36:26;;;;;;;17.00;16.30;;;;;;;-141.02;100.00;55844.97;5133764;27;20192;-69
2022/03/01 05:38:53;;;;;;;16.63;15.97;;;;;;;-141.02;100.00;55844.97;5133658;27;20232;-69
2022/03/01 05:41:21;;;;;;;15.40;14.80;;;;;;;-141.02;100.00;55844.97;5133817;27;20189;-68
2022/03/01 05:43:48;;;;;;;16.97;16.27;;;;;;;-141.02;100.00;55844.97;5133687;27;20606;-69
2022/03/01 05:46:15;;;;;;;17.27;16.53;;;;;;;-141.02;100.00;55844.97;5133681;27;20211;-69
2022/03/01 05:48:44;;;;;;;16.50;15.80;;;;;;;-141.02;100.00;55844.97;5133910;27;20257;-69
2022/03/01 05:51:10;;;;;;;17.77;17.07;;;;;;;-141.02;100.00;55844.97;5133644;27;20188;-69
2022/03/01 05:53:38;;;;;;;15.73;15.13;;;;;;;-141.02;100.00;55844.97;5134704;27;20228;-70
2022/03/01 05:56:05;;;;;;;16.87;16.20;;;;;;;-141.02;100.00;55844.97;5133470;27;20221;-69
2022/03/01 05:58:32;;;;;;;16.80;16.10;;;;;;;-141.02;100.00;55844.97;5133422;27;20236;-69
2022/03/01 06:00:59;;;;;;;17.70;16.80;;;;;;;-141.02;100.00;55844.97;5133440;27;20228;-69
2022/03/01 06:03:26;;;;;;;16.40;15.70;;;;;;;-141.02;100.00;55844.97;5133425;27;20674;-69
2022/03/01 06:05:55;;;;;;;20.47;19.57;;;;;;;-141.02;100.00;55844.97;5133611;27;20231;-69
2022/03/01 06:08:22;;;;;;;19.07;18.27;;;;;;;-141.02;100.00;55844.97;5133640;27;20359;-69
2022/03/01 06:10:49;;;;;;;15.83;15.17;;;;;;;-141.02;100.00;55844.97;5133236;27;20245;-69
2022/03/01 06:13:16;;;;;;;17.07;16.17;;;;;;;-141.02;100.00;55844.97;5133531;27;20192;-69
2022/03/01 06:15:43;;;;;;;16.17;15.37;;;;;;;-141.02;100.00;55844.97;5133149;27;20261;-69
2022/03/01 06:18:10;;;;;;;20.97;19.87;;;;;;;-141.02;100.00;55844.97;5133207;27;20316;-69
2022/03/01 06:20:37;;;;;;;18.60;17.63;;;;;;;-141.02;100.00;55844.97;5133137;27;20662;-69
2022/03/01 06:23:05;;;;;;;16.57;15.87;;;;;;;-141.02;100.00;55844.97;5133426;27;20303;-69
2022/03/01 06:25:32;;;;;;;20.10;19.30;;;;;;;-141.02;100.00;55844.97;5133081;27;20196;-69
2022/03/01 06:28:00;;;;;;;18.67;17.77;;;;;;;-141.02;100.00;55844.97;5133106;27;20227;-69
2022/03/01 06:30:27;;;;;;;20.77;19.97;;;;;;;-141.02;100.00;55844.97;5133064;27;20228;-69
2022/03/01 06:32:54;;;;;;;19.63;18.83;;;;;;;-141.02;100.00;55844.97;5133021;27;20638;-69
2022/03/01 06:35:21;;;;;;;18.17;17.37;;;;;;;-141.02;100.00;55844.97;5132825;28;20215;-69
2022/03/01 06:37:48;;;;;;;18.80;18.00;;;;;;;-141.02;100.00;55844.97;5133017;27;20224;-69
2022/03/01 06:40:16;;;;;;;19.47;18.53;;;;;;;-141.02;100.00;55844.97;5133352;28;20577;-69
2022/03/01 06:42:43;;;;;;;18.40;17.60;;;;;;;-141.02;100.00;55844.97;5133242;28;20230;-69
2022/03/01 06:45:11;;;;;;;17.93;17.13;;;;;;;-141.02;100.00;55844.97;5133457;27;20196;-69
2022/03/01 06:47:38;;;;;;;17.30;16.40;;;;;;;-141.02;100.00;55844.97;5137507;27;20220;-72
2022/03/01 06:50:07;;;;;;;18.27;17.33;;;;;;;-141.02;100.00;55844.97;5137140;27;20578;-69
2022/03/01 06:52:35;;;;;;;20.60;19.63;;;;;;;-141.02;100.00;55844.97;5137000;27;20224;-68
2022/03/01 06:55:02;;;;;;;17.40;16.60;;;;;;;-141.02;100.00;55844.97;5136970;27;20647;-68
2022/03/01 06:57:30;;;;;;;17.57;16.77;;;;;;;-141.02;100.00;55844.97;5136986;27;20192;-69
2022/03/01 06:59:57;;;;;;;18.57;17.70;;;;;;;-141.02;100.00;55844.97;5137300;27;20256;-69
2022/03/01 07:02:26;;;;;;;17.20;16.40;;;;;;;-141.02;100.00;55844.97;5137209;27;20275;-69
2022/03/01 07:04:54;;;;;;;18.93;18.03;;;;;;;-141.02;100.00;55844.97;5137173;27;20200;-69
2022/03/01 07:07:22;;;;;;;18.70;17.87;;;;;;;-141.02;100.00;55844.97;5137687;27;20203;-70
2022/03/01 07:09:49;;;;;;;18.53;17.63;;;;;;;-141.02;100.00;55844.97;5136734;27;20193;-69
2022/03/01 07:12:16;;;;;;;19.13;18.13;;;;;;;-141.02;100.00;55844.97;5136998;27;20286;-69
2022/03/01 07:14:45;;;;;;;18.40;17.40;;;;;;;-141.02;100.00;55844.97;5136873;27;20277;-69
2022/03/01 07:17:12;;;;;;;18.17;17.37;;;;;;;-141.02;100.00;55844.97;5136868;27;20253;-70
2022/03/01 07:19:39;;;;;;;19.90;18.83;;;;;;;-141.02;100.00;55844.97;5136572;27;20284;-69
2022/03/01 07:22:06;;;;;;;17.40;16.40;;;;;;;-141.02;100.00;55844.97;5136509;27;20232;-69
2022/03/01 07:24:32;;;;;;;16.77;16.07;;;;;;;-141.02;100.00;55844.97;5136496;27;20283;-70
2022/03/01 07:27:00;;;;;;;17.00;16.30;;;;;;;-141.02;100.00;55844.97;5136385;27;20567;-70
2022/03/01 07:29:29;;;;;;;20.40;19.20;;;;;;;-141.02;100.00;55844.97;5136378;27;20192;-69
2022/03/01 07:31:58;;;;;;;19.63;18.63;;;;;;;-141.02;100.00;55844.97;5136322;27;20197;-70
2022/03/01 07:34:26;;;;;;;17.50;16.70;;;;;;;-141.02;100.00;55844.97;5136534;27;20271;-69
2022/03/01 07:36:53;;;;;;;17.80;17.00;;;;;;;-141.02;100.00;55844.97;5136479;27;20224;-70
2022/03/01 07:39:20;;;;;;;18.63;17.73;;;;;;;-141.02;100.00;55844.97;5136185;27;20771;-70
2022/03/01 07:41:47;;;;;;;19.57;18.57;;;;;;;-141.02;100.00;55844.97;5136203;27;20708;-70
2022/03/01 07:44:14;;;;;;;21.90;20.70;;;;;;;-141.02;100.00;55844.97;5136436;27;20249;-69
2022/03/01 07:46:41;;;;;;;21.13;19.90;;;;;;;-141.02;100.00;55844.97;5136388;27;20549;-69
2022/03/01 07:49:09;;;;;;;19.33;18.33;;;;;;;-141.02;100.00;55844.97;5135989;27;20662;-69
2022/03/01 07:51:36;;;;;;;19.10;18.10;;;;;;;-141.02;100.00;55844.97;5135913;27;20238;-69
2022/03/01 07:54:04;;;;;;;22.57;21.13;;;;;;;-141.02;100.00;55844.97;5136205;27;20254;-69
2022/03/01 07:56:31;;;;;;;19.00;18.00;;;;;;;-141.02;100.00;55844.97;5136080;27;20257;-70
2022/03/01 07:58:58;;;;;;;21.20;19.90;;;;;;;-141.02;100.00;55844.97;5135428;27;20197;-71
2022/03/01 08:01:25;;;;;;;19.63;18.53;;;;;;;-141.02;100.00;55844.97;5135821;27;20189;-70
2022/03/01 08:03:52;;;;;;;20.63;19.33;;;;;;;-141.02;100.00;55844.97;5135706;27;20193;-69
2022/03/01 08:06:20;;;;;;;19.70;18.60;;;;;;;-141.02;100.00;55844.97;5135679;27;20194;-69
2022/03/01 08:08:47;;;;;;;21.27;19.97;;;;;;;-141.02;100.00;55844.97;5135554;27;20197;-69
2022/03/01 08:11:15;;;;;;;21.67;20.27;;;;;;;-141.02;100.00;55844.97;5135540;27;20200;-69
2022/03/01 08:13:43;;;;;;;21.50;20.20;;;;;;;-141.02;100.00;55844.97;5135808;27;20632;-69
2022/03/01 08:16:10;;;;;;;21.10;19.87;;;;;;;-141.02;100.00;55844.97;5135727;27;20220;-69
2022/03/01 08:18:37;;;;;;;20.63;19.47;;;;;;;-141.02;100.00;55844.97;5135508;27;20193;-70
2022/03/01 08:21:06;;;;;;;21.47;19.90;;;;;;;-141.02;100.00;55844.97;5135382;27;20265;-70
2022/03/01 08:23:36;;;;;;;23.30;21.93;;;;;;;-141.02;100.00;55844.97;5135395;27;20192;-70
2022/03/01 08:26:04;;;;;;;21.60;20.30;;;;;;;-141.02;100.00;55844.97;5135273;27;20283;-70
2022/03/01 08:28:32;;;;;;;21.17;19.97;;;;;;;-141.02;100.00;55844.97;5135614;27;20200;-70
2022/03/01 08:31:00;;;;;;;20.10;19.10;;;;;;;-141.02;100.00;55844.97;5135439;27;20237;-70
2022/03/01 08:33:27;;;;;;;20.73;19.53;;;;;;;-141.02;100.00;55844.97;5135134;27;20192;-70
2022/03/01 08:35:55;;;;;;;21.57;20.37;;;;;;;-141.02;100.00;55844.97;5135336;27;20224;-69
2022/03/01 08:38:22;;;;;;;22.20;20.43;;;;;;;-141.02;100.00;55844.97;5135345;27;20219;-69
2022/03/01 08:40:51;;;;;;;20.90;19.70;;;;;;;-141.02;100.00;55844.97;5134834;27;20232;-70
2022/03/01 08:43:20;;;;;;;20.60;19.40;;;;;;;-141.02;100.00;55844.97;5134936;27;20247;-70
2022/03/01 08:45:47;;;;;;;21.90;20.50;;;;;;;-141.02;100.00;55844.97;5134860;27;20693;-70
2022/03/01 08:48:14;;;;;;;21.10;19.83;;;;;;;-141.02;100.00;55844.97;5135195;27;20192;-70
2022/03/01 08:50:41;;;;;;;20.60;19.50;;;;;;;-141.02;100.00;55844.97;5135097;27;20197;-69
2022/03/01 08:53:08;;;;;;;21.70;20.30;;;;;;;-141.02;100.00;55844.97;5135104;27;20224;-70
2022/03/01 08:55:36;;;;;;;20.73;19.53;;;;;;;-141.02;100.00;55844.97;5134926;27;20268;-70
2022/03/01 08:58:04;;;;;;;23.20;21.77;;;;;;;-141.02;100.00;55844.97;5135050;27;20225;-70
2022/03/01 09:00:32;;;;;;;21.60;20.30;;;;;;;-141.02;100.00;55844.97;5134642;27;20231;-71
2022/03/01 09:02:59;;;;;;;22.10;20.70;;;;;;;-141.02;100.00;55844.97;5134669;27;20270;-70
2022/03/01 09:05:27;;;;;;;21.07;19.87;;;;;;;-141.02;100.00;55844.97;5134566;27;20196;-71
2022/03/01 09:07:54;;;;;;;22.40;21.00;;;;;;;-141.02;100.00;55844.97;5134777;27;20201;-70
2022/03/01 09:10:23;;;;;;;22.00;20.57;;;;;;;-141.02;100.00;55844.97;5133297;27;20735;-70
2022/03/01 09:12:51;;;;;;;21.20;19.90;;;;;;;-141.02;100.00;55844.97;5134295;27;20275;-70
2022/03/01 09:15:20;;;;;;;20.90;19.70;;;;;;;-141.02;100.00;55844.97;5134540;27;20629;-71
2022/03/01 09:17:48;;;;;;;20.53;19.33;;;;;;;-141.02;100.00;55844.97;5134549;27;20253;-71
2022/03/01 09:20:16;;;;;;;20.77;19.50;;;;;;;-141.02;100.00;55844.97;5134532;27;20596;-70
2022/03/01 09:22:43;;;;;;;21.37;19.90;;;;;;;-141.02;100.00;55844.97;5134175;27;20287;-70
2022/03/01 09:25:11;;;;;;;21.00;19.80;;;;;;;-141.02;100.00;55844.97;5134410;27;20196;-71
2022/03/01 09:27:38;;;;;;;22.23;20.77;;;;;;;-141.02;100.00;55844.97;5134101;27;20229;-71
2022/03/01 09:30:07;;;;;;;21.83;20.33;;;;;;;-141.02;100.00;55844.97;5133959;27;20552;-70
2022/03/01 09:32:35;;;;;;;21.07;19.87;;;;;;;-141.02;100.00;55844.97;5134338;27;20193;-70
2022/03/01 09:35:03;;;;;;;22.27;20.77;;;;;;;-141.02;100.00;55844.97;5134255;27;20284;-71
2022/03/01 09:37:32;;;;;;;23.73;22.13;;;;;;;-141.02;100.00;55844.97;5134165;27;20260;-69
2022/03/01 09:39:59;;;;;;;22.43;21.03;;;;;;;-141.02;100.00;55844.97;5133812;27;20224;-70
2022/03/01 09:42:26;;;;;;;21.70;20.47;;;;;;;-141.02;100.00;55844.97;5133758;27;20556;-71
2022/03/01 09:44:54;;;;;;;22.23;20.83;;;;;;;-141.02;100.00;55844.97;5133747;27;20650;-70
2022/03/01 09:47:21;;;;;;;23.13;21.47;;;;;;;-141.02;100.00;55844.97;5133678;27;20192;-70
2022/03/01 09:49:50;;;;;;;22.53;20.83;;;;;;;-141.02;100.00;55844.97;5133657;27;20727;-69
2022/03/01 09:52:17;;;;;;;20.47;19.33;;;;;;;-141.02;100.00;55844.97;5133621;27;20223;-71
2022/03/01 09:54:45;;;;;;;21.80;20.30;;;;;;;-141.02;100.00;55844.97;5133865;27;20227;-71
2022/03/01 09:57:13;;;;;;;22.23;20.73;;;;;;;-141.02;100.00;55844.97;5133837;27;20679;-71
2022/03/01 09:59:41;;;;;;;23.20;21.60;;;;;;;-141.02;100.00;55844.97;5133481;27;20707;-71
2022/03/01 10:02:09;;;;;;;20.97;19.83;;;;;;;-141.02;100.00;55844.97;5133771;27;20592;-72
2022/03/01 10:04:38;;;;;;;23.33;21.73;;;;;;;-141.02;100.00;55844.97;5133689;27;20681;-68
2022/03/01 10:07:11;;;;;;;22.83;21.43;;;;;;;-141.02;100.00;55844.97;5133371;27;20666;-70
2022/03/01 10:09:42;;;;;;;25.23;23.53;;;;;;;-141.02;100.00;55844.97;5133314;27;20257;-72
2022/03/01 10:12:09;;;;;;;23.10;21.80;;;;;;;-141.02;100.00;55844.97;5134186;27;20184;-73
2022/03/01 10:14:37;;;;;;;23.63;22.20;;;;;;;-141.02;100.00;55844.97;5133607;27;20654;-73
2022/03/01 10:17:14;;;;;;;22.20;20.87;;;;;;;-141.02;100.00;55844.97;5133463;27;20774;-73
2022/03/01 10:19:41;;;;;;;22.90;21.57;;;;;;;-141.02;100.00;55844.97;5133554;27;20188;-72
2022/03/01 10:22:12;;;;;;;23.50;21.83;;;;;;;-141.02;100.00;55844.97;5132802;27;20204;-72
2022/03/01 10:24:48;;;;;;;23.50;22.20;;;;;;;-141.02;100.00;55844.97;5133450;27;20650;-70
2022/03/01 10:27:15;;;;;;;21.83;20.53;;;;;;;-141.02;100.00;55844.97;5133423;27;20194;-73
2022/03/01 10:29:47;;;;;;;23.07;21.57;;;;;;;-141.02;100.00;55844.97;5133426;27;20189;-72
2022/03/01 10:32:14;;;;;;;22.30;20.70;;;;;;;-141.02;100.00;55844.97;5133383;27;20657;-72
2022/03/01 10:35:00;;;;;;;21.83;20.60;;;;;;;-141.02;100.00;55844.97;5133001;27;20238;-72
2022/03/01 10:37:30;;;;;;;23.63;22.20;;;;;;;-141.02;100.00;55844.97;5133223;28;20220;-72
2022/03/01 10:40:19;;;;;;;23.80;22.23;;;;;;;-141.02;100.00;55844.97;5132803;28;20709;-72
2022/03/01 10:43:00;;;;;;;23.33;21.93;;;;;;;-141.02;100.00;55844.97;5133289;28;20264;-72
2022/03/01 10:45:38;;;;;;;24.23;22.63;;;;;;;-141.02;100.00;55844.97;5133265;27;20191;-72
2022/03/01 10:48:07;;;;;;;26.10;24.40;;;;;;;-141.02;100.00;55844.97;5133306;28;20189;-71
2022/03/01 10:50:35;;;;;;;22.97;21.67;;;;;;;-141.02;100.00;55844.97;5133191;28;20188;-72
2022/03/01 10:53:05;;;;;;;24.40;22.60;;;;;;;-141.02;100.00;55844.97;5132903;28;20651;-72
2022/03/01 10:55:38;;;;;;;24.57;23.17;;;;;;;-141.02;100.00;55844.97;5132837;28;20181;-72
2022/03/01 10:58:10;;;;;;;26.43;24.63;;;;;;;-141.02;100.00;55844.97;5133167;28;20195;-72